sensor_id;sensor_type;location;lat;lon;timestamp;temperature;humidity
26053;DHT22;13826;51.186;4.450;2023-04-30T00:01:19;10.70;99.90
26053;DHT22;13826;51.186;4.450;2023-04-30T00:03:44;10.60;1.00
26053;DHT22;13826;51.186;4.450;2023-04-30T00:06:10;10.70;1.00
26053;DHT22;13826;51.186;4.450;2023-04-30T00:08:35;10.60;1.00
26053;DHT22;13826;51.186;4.450;2023-04-30T00:11:01;10.60;1.00
26053;DHT22;13826;51.186;4.450;2023-04-30T00:13:26;10.60;1.00
26053;DHT22;13826;51.186;4.450;2023-04-30T00:15:52;10.50;1.00
26053;DHT22;13826;51.186;4.450;2023-04-30T00:18:17;10.50;1.00
26053;DHT22;13826;51.186;4.450;2023-04-30T00:20:43;10.40;1.00
26053;DHT22;13826;51.186;4.450;2023-04-30T00:23:08;10.40;1.00
26053;DHT22;13826;51.186;4.450;2023-04-30T00:25:34;10.40;1.00
26053;DHT22;13826;51.186;4.450;2023-04-30T00:27:59;10.40;1.00
26053;DHT22;13826;51.186;4.450;2023-04-30T00:30:25;10.20;1.00
26053;DHT22;13826;51.186;4.450;2023-04-30T00:32:50;10.20;1.00
26053;DHT22;13826;51.186;4.450;2023-04-30T00:35:16;10.20;1.00
26053;DHT22;13826;51.186;4.450;2023-04-30T00:37:42;10.00;1.00
26053;DHT22;13826;51.186;4.450;2023-04-30T00:40:07;9.90;1.00
26053;DHT22;13826;51.186;4.450;2023-04-30T00:42:33;10.00;1.00
26053;DHT22;13826;51.186;4.450;2023-04-30T00:44:58;10.00;1.00
26053;DHT22;13826;51.186;4.450;2023-04-30T00:47:24;10.00;1.00
26053;DHT22;13826;51.186;4.450;2023-04-30T00:49:49;10.00;1.00
26053;DHT22;13826;51.186;4.450;2023-04-30T00:52:15;9.90;1.00
26053;DHT22;13826;51.186;4.450;2023-04-30T00:54:41;10.00;1.00
26053;DHT22;13826;51.186;4.450;2023-04-30T00:57:07;10.00;1.00
26053;DHT22;13826;51.186;4.450;2023-04-30T00:59:33;9.90;1.00
26053;DHT22;13826;51.186;4.450;2023-04-30T01:01:59;9.90;1.00
26053;DHT22;13826;51.186;4.450;2023-04-30T01:04:25;9.80;1.00
26053;DHT22;13826;51.186;4.450;2023-04-30T01:06:51;9.70;1.00
26053;DHT22;13826;51.186;4.450;2023-04-30T01:09:16;9.70;1.00
26053;DHT22;13826;51.186;4.450;2023-04-30T01:11:57;9.80;1.00
26053;DHT22;13826;51.186;4.450;2023-04-30T01:14:29;9.80;1.00
26053;DHT22;13826;51.186;4.450;2023-04-30T01:21:58;9.70;1.00
26053;DHT22;13826;51.186;4.450;2023-04-30T01:27:06;9.80;1.00
26053;DHT22;13826;51.186;4.450;2023-04-30T01:29:31;9.70;1.00
26053;DHT22;13826;51.186;4.450;2023-04-30T01:31:58;9.60;1.00
26053;DHT22;13826;51.186;4.450;2023-04-30T01:34:25;9.60;1.00
26053;DHT22;13826;51.186;4.450;2023-04-30T01:42:15;9.40;1.00
26053;DHT22;13826;51.186;4.450;2023-04-30T01:49:56;9.20;1.00
26053;DHT22;13826;51.186;4.450;2023-04-30T01:53:05;9.30;1.00
26053;DHT22;13826;51.186;4.450;2023-04-30T01:55:13;9.40;1.00
26053;DHT22;13826;51.186;4.450;2023-04-30T01:57:41;9.30;1.00
26053;DHT22;13826;51.186;4.450;2023-04-30T02:00:07;9.30;1.00
26053;DHT22;13826;51.186;4.450;2023-04-30T02:02:37;9.20;1.00
26053;DHT22;13826;51.186;4.450;2023-04-30T02:05:03;9.20;1.00
26053;DHT22;13826;51.186;4.450;2023-04-30T02:07:43;9.10;1.00
26053;DHT22;13826;51.186;4.450;2023-04-30T02:10:09;9.20;1.00
26053;DHT22;13826;51.186;4.450;2023-04-30T02:12:36;9.30;1.00
26053;DHT22;13826;51.186;4.450;2023-04-30T02:15:02;9.30;1.00
26053;DHT22;13826;51.186;4.450;2023-04-30T02:17:28;9.30;1.00
26053;DHT22;13826;51.186;4.450;2023-04-30T02:19:54;9.30;1.00
26053;DHT22;13826;51.186;4.450;2023-04-30T02:22:19;9.20;1.00
26053;DHT22;13826;51.186;4.450;2023-04-30T02:24:45;9.00;1.80
26053;DHT22;13826;51.186;4.450;2023-04-30T02:27:11;8.90;11.00
26053;DHT22;13826;51.186;4.450;2023-04-30T02:29:37;8.80;15.90
26053;DHT22;13826;51.186;4.450;2023-04-30T02:32:02;8.90;19.60
26053;DHT22;13826;51.186;4.450;2023-04-30T02:34:28;9.00;18.20
26053;DHT22;13826;51.186;4.450;2023-04-30T02:36:53;8.90;20.30
26053;DHT22;13826;51.186;4.450;2023-04-30T02:39:19;8.80;22.30
26053;DHT22;13826;51.186;4.450;2023-04-30T02:41:45;8.80;25.50
26053;DHT22;13826;51.186;4.450;2023-04-30T02:44:11;8.80;26.50
26053;DHT22;13826;51.186;4.450;2023-04-30T02:46:36;8.80;28.90
26053;DHT22;13826;51.186;4.450;2023-04-30T02:49:02;8.80;29.70
26053;DHT22;13826;51.186;4.450;2023-04-30T02:51:27;8.90;24.20
26053;DHT22;13826;51.186;4.450;2023-04-30T02:53:53;8.90;23.80
26053;DHT22;13826;51.186;4.450;2023-04-30T02:56:18;8.70;32.50
26053;DHT22;13826;51.186;4.450;2023-04-30T02:58:44;8.50;42.50
26053;DHT22;13826;51.186;4.450;2023-04-30T03:01:10;8.50;48.00
26053;DHT22;13826;51.186;4.450;2023-04-30T03:03:35;8.60;50.40
26053;DHT22;13826;51.186;4.450;2023-04-30T03:06:01;8.60;48.00
26053;DHT22;13826;51.186;4.450;2023-04-30T03:08:26;8.60;45.60
26053;DHT22;13826;51.186;4.450;2023-04-30T03:10:52;8.70;44.50
26053;DHT22;13826;51.186;4.450;2023-04-30T03:13:17;8.70;45.90
26053;DHT22;13826;51.186;4.450;2023-04-30T03:15:43;8.60;47.80
26053;DHT22;13826;51.186;4.450;2023-04-30T03:18:09;8.50;55.10
26053;DHT22;13826;51.186;4.450;2023-04-30T03:20:34;8.40;59.70
26053;DHT22;13826;51.186;4.450;2023-04-30T03:23:00;8.50;61.30
26053;DHT22;13826;51.186;4.450;2023-04-30T03:25:25;8.50;60.50
26053;DHT22;13826;51.186;4.450;2023-04-30T03:27:51;8.60;58.90
26053;DHT22;13826;51.186;4.450;2023-04-30T03:30:17;8.60;59.90
26053;DHT22;13826;51.186;4.450;2023-04-30T03:32:42;8.50;66.80
26053;DHT22;13826;51.186;4.450;2023-04-30T03:35:08;8.50;67.80
26053;DHT22;13826;51.186;4.450;2023-04-30T03:37:33;8.60;70.10
26053;DHT22;13826;51.186;4.450;2023-04-30T03:39:59;8.60;70.30
26053;DHT22;13826;51.186;4.450;2023-04-30T03:42:24;8.60;71.20
26053;DHT22;13826;51.186;4.450;2023-04-30T03:44:50;8.60;73.00
26053;DHT22;13826;51.186;4.450;2023-04-30T03:47:15;8.50;78.60
26053;DHT22;13826;51.186;4.450;2023-04-30T03:49:41;8.50;81.60
26053;DHT22;13826;51.186;4.450;2023-04-30T03:52:06;8.40;88.30
26053;DHT22;13826;51.186;4.450;2023-04-30T03:54:32;8.40;91.40
26053;DHT22;13826;51.186;4.450;2023-04-30T03:57:01;8.50;90.90
26053;DHT22;13826;51.186;4.450;2023-04-30T03:59:32;8.50;89.00
26053;DHT22;13826;51.186;4.450;2023-04-30T04:01:58;8.50;88.60
26053;DHT22;13826;51.186;4.450;2023-04-30T04:04:24;8.30;92.40
26053;DHT22;13826;51.186;4.450;2023-04-30T04:06:49;8.30;93.20
26053;DHT22;13826;51.186;4.450;2023-04-30T04:09:15;8.20;94.40
26053;DHT22;13826;51.186;4.450;2023-04-30T04:11:41;8.20;95.30
26053;DHT22;13826;51.186;4.450;2023-04-30T04:14:06;8.30;95.70
26053;DHT22;13826;51.186;4.450;2023-04-30T04:16:32;8.40;93.70
26053;DHT22;13826;51.186;4.450;2023-04-30T04:18:57;8.40;94.60
26053;DHT22;13826;51.186;4.450;2023-04-30T04:21:23;8.30;95.10
26053;DHT22;13826;51.186;4.450;2023-04-30T04:23:48;8.20;96.60
26053;DHT22;13826;51.186;4.450;2023-04-30T04:26:14;8.30;98.40
26053;DHT22;13826;51.186;4.450;2023-04-30T04:28:40;8.30;97.60
26053;DHT22;13826;51.186;4.450;2023-04-30T04:31:06;8.30;97.80
26053;DHT22;13826;51.186;4.450;2023-04-30T04:33:32;8.30;98.20
26053;DHT22;13826;51.186;4.450;2023-04-30T04:35:57;8.40;98.30
26053;DHT22;13826;51.186;4.450;2023-04-30T04:38:23;8.50;98.20
26053;DHT22;13826;51.186;4.450;2023-04-30T04:40:52;8.40;98.80
26053;DHT22;13826;51.186;4.450;2023-04-30T04:43:18;8.40;99.40
26053;DHT22;13826;51.186;4.450;2023-04-30T04:45:44;8.40;99.90
26053;DHT22;13826;51.186;4.450;2023-04-30T04:48:10;8.60;99.00
26053;DHT22;13826;51.186;4.450;2023-04-30T04:50:35;8.70;97.40
26053;DHT22;13826;51.186;4.450;2023-04-30T04:53:01;8.60;98.30
26053;DHT22;13826;51.186;4.450;2023-04-30T04:55:26;8.70;98.80
26053;DHT22;13826;51.186;4.450;2023-04-30T04:57:52;8.70;97.00
26053;DHT22;13826;51.186;4.450;2023-04-30T05:00:17;8.70;96.20
26053;DHT22;13826;51.186;4.450;2023-04-30T05:02:43;8.70;97.00
26053;DHT22;13826;51.186;4.450;2023-04-30T05:05:08;8.80;96.80
26053;DHT22;13826;51.186;4.450;2023-04-30T05:07:35;8.80;96.40
26053;DHT22;13826;51.186;4.450;2023-04-30T05:10:00;8.80;96.10
26053;DHT22;13826;51.186;4.450;2023-04-30T05:12:26;8.90;96.30
26053;DHT22;13826;51.186;4.450;2023-04-30T05:14:51;8.90;98.40
26053;DHT22;13826;51.186;4.450;2023-04-30T05:17:17;9.00;96.40
26053;DHT22;13826;51.186;4.450;2023-04-30T05:19:42;9.10;96.80
26053;DHT22;13826;51.186;4.450;2023-04-30T05:22:08;9.20;95.40
26053;DHT22;13826;51.186;4.450;2023-04-30T05:24:34;9.60;97.40
26053;DHT22;13826;51.186;4.450;2023-04-30T05:26:59;10.40;83.50
26053;DHT22;13826;51.186;4.450;2023-04-30T05:29:27;11.20;28.50
26053;DHT22;13826;51.186;4.450;2023-04-30T05:31:52;11.80;1.00
26053;DHT22;13826;51.186;4.450;2023-04-30T05:34:18;12.30;1.00
26053;DHT22;13826;51.186;4.450;2023-04-30T05:36:44;13.20;1.00
26053;DHT22;13826;51.186;4.450;2023-04-30T05:39:09;13.80;1.00
26053;DHT22;13826;51.186;4.450;2023-04-30T05:41:35;14.10;99.90
26053;DHT22;13826;51.186;4.450;2023-04-30T05:44:01;14.70;99.90
26053;DHT22;13826;51.186;4.450;2023-04-30T05:46:29;14.60;1.00
26053;DHT22;13826;51.186;4.450;2023-04-30T05:48:54;14.30;1.00
26053;DHT22;13826;51.186;4.450;2023-04-30T05:51:20;14.30;1.00
26053;DHT22;13826;51.186;4.450;2023-04-30T05:53:46;14.30;1.00
26053;DHT22;13826;51.186;4.450;2023-04-30T05:56:11;14.40;99.90
26053;DHT22;13826;51.186;4.450;2023-04-30T05:58:37;15.10;1.00
26053;DHT22;13826;51.186;4.450;2023-04-30T06:01:03;16.40;1.00
26053;DHT22;13826;51.186;4.450;2023-04-30T06:03:29;16.20;1.00
26053;DHT22;13826;51.186;4.450;2023-04-30T06:05:55;15.80;25.00
26053;DHT22;13826;51.186;4.450;2023-04-30T06:08:21;16.00;78.00
26053;DHT22;13826;51.186;4.450;2023-04-30T06:10:47;16.00;1.00
26053;DHT22;13826;51.186;4.450;2023-04-30T06:13:12;15.80;99.90
26053;DHT22;13826;51.186;4.450;2023-04-30T06:15:39;16.70;99.90
26053;DHT22;13826;51.186;4.450;2023-04-30T06:18:05;17.40;1.00
26053;DHT22;13826;51.186;4.450;2023-04-30T06:20:31;17.80;99.90
26053;DHT22;13826;51.186;4.450;2023-04-30T06:22:57;18.00;17.60
26053;DHT22;13826;51.186;4.450;2023-04-30T06:25:22;18.40;1.00
26053;DHT22;13826;51.186;4.450;2023-04-30T06:27:48;19.60;99.90
26053;DHT22;13826;51.186;4.450;2023-04-30T06:30:15;19.90;99.90
26053;DHT22;13826;51.186;4.450;2023-04-30T06:32:41;19.80;99.90
26053;DHT22;13826;51.186;4.450;2023-04-30T06:35:07;19.60;99.90
26053;DHT22;13826;51.186;4.450;2023-04-30T06:37:32;20.50;99.90
26053;DHT22;13826;51.186;4.450;2023-04-30T06:40:04;21.00;99.90
26053;DHT22;13826;51.186;4.450;2023-04-30T06:42:30;20.30;99.90
26053;DHT22;13826;51.186;4.450;2023-04-30T06:44:59;20.20;99.90
26053;DHT22;13826;51.186;4.450;2023-04-30T06:47:25;19.50;99.90
26053;DHT22;13826;51.186;4.450;2023-04-30T06:49:51;19.60;99.90
26053;DHT22;13826;51.186;4.450;2023-04-30T06:52:16;19.80;99.90
26053;DHT22;13826;51.186;4.450;2023-04-30T06:54:42;20.90;99.90
26053;DHT22;13826;51.186;4.450;2023-04-30T06:57:08;21.20;99.90
26053;DHT22;13826;51.186;4.450;2023-04-30T06:59:33;22.40;90.20
26053;DHT22;13826;51.186;4.450;2023-04-30T07:01:59;22.40;61.60
26053;DHT22;13826;51.186;4.450;2023-04-30T07:04:24;23.10;25.40
26053;DHT22;13826;51.186;4.450;2023-04-30T07:06:50;22.50;20.90
26053;DHT22;13826;51.186;4.450;2023-04-30T07:09:17;22.70;21.40
26053;DHT22;13826;51.186;4.450;2023-04-30T07:11:45;24.00;1.00
26053;DHT22;13826;51.186;4.450;2023-04-30T07:14:11;23.80;1.00
26053;DHT22;13826;51.186;4.450;2023-04-30T07:16:37;23.50;1.00
26053;DHT22;13826;51.186;4.450;2023-04-30T07:19:02;24.00;1.00
26053;DHT22;13826;51.186;4.450;2023-04-30T07:21:28;24.60;1.00
26053;DHT22;13826;51.186;4.450;2023-04-30T07:23:54;23.70;1.00
26053;DHT22;13826;51.186;4.450;2023-04-30T07:26:19;25.00;1.00
26053;DHT22;13826;51.186;4.450;2023-04-30T07:28:48;24.70;1.00
26053;DHT22;13826;51.186;4.450;2023-04-30T07:31:14;24.30;1.00
26053;DHT22;13826;51.186;4.450;2023-04-30T07:33:39;24.70;1.00
26053;DHT22;13826;51.186;4.450;2023-04-30T07:36:05;25.40;1.00
26053;DHT22;13826;51.186;4.450;2023-04-30T07:38:31;25.00;1.00
26053;DHT22;13826;51.186;4.450;2023-04-30T07:40:57;25.50;1.00
26053;DHT22;13826;51.186;4.450;2023-04-30T07:43:22;24.90;1.00
26053;DHT22;13826;51.186;4.450;2023-04-30T07:45:49;24.30;1.00
26053;DHT22;13826;51.186;4.450;2023-04-30T07:48:15;24.50;1.00
26053;DHT22;13826;51.186;4.450;2023-04-30T07:50:41;24.90;1.00
26053;DHT22;13826;51.186;4.450;2023-04-30T07:53:07;24.90;1.00
26053;DHT22;13826;51.186;4.450;2023-04-30T07:55:34;25.20;1.00
26053;DHT22;13826;51.186;4.450;2023-04-30T07:57:59;26.00;1.00
26053;DHT22;13826;51.186;4.450;2023-04-30T08:00:26;27.10;1.00
26053;DHT22;13826;51.186;4.450;2023-04-30T08:02:53;26.10;1.00
26053;DHT22;13826;51.186;4.450;2023-04-30T08:05:19;25.70;1.00
26053;DHT22;13826;51.186;4.450;2023-04-30T08:07:45;26.30;1.00
26053;DHT22;13826;51.186;4.450;2023-04-30T08:10:11;26.50;1.00
26053;DHT22;13826;51.186;4.450;2023-04-30T08:12:36;26.50;1.00
26053;DHT22;13826;51.186;4.450;2023-04-30T08:15:02;26.40;1.00
26053;DHT22;13826;51.186;4.450;2023-04-30T08:17:29;27.60;1.00
26053;DHT22;13826;51.186;4.450;2023-04-30T08:19:54;28.60;1.00
26053;DHT22;13826;51.186;4.450;2023-04-30T08:22:20;29.00;1.00
26053;DHT22;13826;51.186;4.450;2023-04-30T08:24:46;28.60;1.00
26053;DHT22;13826;51.186;4.450;2023-04-30T08:27:12;29.70;1.00
26053;DHT22;13826;51.186;4.450;2023-04-30T08:29:37;29.90;1.00
26053;DHT22;13826;51.186;4.450;2023-04-30T08:32:03;29.50;1.00
26053;DHT22;13826;51.186;4.450;2023-04-30T08:34:30;27.60;1.00
26053;DHT22;13826;51.186;4.450;2023-04-30T08:36:55;27.40;1.00
26053;DHT22;13826;51.186;4.450;2023-04-30T08:39:21;27.30;1.00
26053;DHT22;13826;51.186;4.450;2023-04-30T08:41:49;27.50;1.00
26053;DHT22;13826;51.186;4.450;2023-04-30T08:44:19;28.60;1.00
26053;DHT22;13826;51.186;4.450;2023-04-30T08:46:46;28.70;1.00
26053;DHT22;13826;51.186;4.450;2023-04-30T08:49:12;29.00;1.00
26053;DHT22;13826;51.186;4.450;2023-04-30T08:51:37;29.70;1.00
26053;DHT22;13826;51.186;4.450;2023-04-30T08:54:04;29.40;1.00
26053;DHT22;13826;51.186;4.450;2023-04-30T08:56:30;28.20;1.00
26053;DHT22;13826;51.186;4.450;2023-04-30T08:58:57;28.60;1.00
26053;DHT22;13826;51.186;4.450;2023-04-30T09:01:23;30.10;1.00
26053;DHT22;13826;51.186;4.450;2023-04-30T09:03:49;29.80;1.00
26053;DHT22;13826;51.186;4.450;2023-04-30T09:06:15;31.40;1.00
26053;DHT22;13826;51.186;4.450;2023-04-30T09:08:44;31.10;1.00
26053;DHT22;13826;51.186;4.450;2023-04-30T09:11:20;31.40;1.00
26053;DHT22;13826;51.186;4.450;2023-04-30T09:13:49;32.80;1.00
26053;DHT22;13826;51.186;4.450;2023-04-30T09:16:17;32.70;1.00
26053;DHT22;13826;51.186;4.450;2023-04-30T09:18:42;32.80;1.00
26053;DHT22;13826;51.186;4.450;2023-04-30T09:21:08;31.70;1.00
26053;DHT22;13826;51.186;4.450;2023-04-30T09:23:34;31.60;1.00
26053;DHT22;13826;51.186;4.450;2023-04-30T09:25:59;31.90;1.00
26053;DHT22;13826;51.186;4.450;2023-04-30T09:28:25;30.80;1.00
26053;DHT22;13826;51.186;4.450;2023-04-30T09:30:54;31.60;1.00
26053;DHT22;13826;51.186;4.450;2023-04-30T09:33:20;31.00;1.00
26053;DHT22;13826;51.186;4.450;2023-04-30T09:35:45;31.90;1.00
26053;DHT22;13826;51.186;4.450;2023-04-30T09:38:30;32.90;1.00
26053;DHT22;13826;51.186;4.450;2023-04-30T09:40:59;31.70;1.00
26053;DHT22;13826;51.186;4.450;2023-04-30T09:43:26;31.60;1.00
26053;DHT22;13826;51.186;4.450;2023-04-30T09:45:51;31.80;1.00
26053;DHT22;13826;51.186;4.450;2023-04-30T09:48:19;31.70;1.00
26053;DHT22;13826;51.186;4.450;2023-04-30T09:50:45;32.60;1.00
26053;DHT22;13826;51.186;4.450;2023-04-30T09:53:12;30.80;1.00
26053;DHT22;13826;51.186;4.450;2023-04-30T09:55:46;30.60;1.00
26053;DHT22;13826;51.186;4.450;2023-04-30T09:58:12;30.40;1.00
26053;DHT22;13826;51.186;4.450;2023-04-30T10:00:38;30.20;1.00
26053;DHT22;13826;51.186;4.450;2023-04-30T10:05:36;31.50;1.00
26053;DHT22;13826;51.186;4.450;2023-04-30T10:08:03;32.30;1.00
26053;DHT22;13826;51.186;4.450;2023-04-30T10:10:31;32.00;1.00
26053;DHT22;13826;51.186;4.450;2023-04-30T10:12:59;32.20;1.00
26053;DHT22;13826;51.186;4.450;2023-04-30T10:15:30;31.10;1.00
26053;DHT22;13826;51.186;4.450;2023-04-30T10:17:59;30.70;1.00
26053;DHT22;13826;51.186;4.450;2023-04-30T10:20:26;30.20;1.00
26053;DHT22;13826;51.186;4.450;2023-04-30T10:22:52;29.20;1.00
26053;DHT22;13826;51.186;4.450;2023-04-30T10:25:18;30.00;1.00
26053;DHT22;13826;51.186;4.450;2023-04-30T10:27:44;29.30;1.00
26053;DHT22;13826;51.186;4.450;2023-04-30T10:30:10;29.90;1.00
26053;DHT22;13826;51.186;4.450;2023-04-30T10:32:52;29.30;1.00
26053;DHT22;13826;51.186;4.450;2023-04-30T10:35:23;29.50;1.00
26053;DHT22;13826;51.186;4.450;2023-04-30T10:37:58;31.00;1.00
26053;DHT22;13826;51.186;4.450;2023-04-30T10:40:34;32.10;1.00
26053;DHT22;13826;51.186;4.450;2023-04-30T10:43:00;31.00;1.00
26053;DHT22;13826;51.186;4.450;2023-04-30T10:45:35;29.00;1.00
26053;DHT22;13826;51.186;4.450;2023-04-30T10:48:02;29.00;1.00
26053;DHT22;13826;51.186;4.450;2023-04-30T10:50:28;28.60;1.00
26053;DHT22;13826;51.186;4.450;2023-04-30T10:53:00;29.60;1.00
26053;DHT22;13826;51.186;4.450;2023-04-30T10:55:28;29.20;1.00
26053;DHT22;13826;51.186;4.450;2023-04-30T10:57:54;29.50;1.00
26053;DHT22;13826;51.186;4.450;2023-04-30T11:00:23;29.50;1.00
26053;DHT22;13826;51.186;4.450;2023-04-30T11:02:52;27.80;1.00
26053;DHT22;13826;51.186;4.450;2023-04-30T11:05:19;28.80;1.00
26053;DHT22;13826;51.186;4.450;2023-04-30T11:07:47;28.90;1.00
26053;DHT22;13826;51.186;4.450;2023-04-30T11:10:13;30.10;1.00
26053;DHT22;13826;51.186;4.450;2023-04-30T11:12:48;29.50;1.00
26053;DHT22;13826;51.186;4.450;2023-04-30T11:15:16;28.10;1.00
26053;DHT22;13826;51.186;4.450;2023-04-30T11:17:42;28.50;1.00
26053;DHT22;13826;51.186;4.450;2023-04-30T11:20:08;29.10;1.00
26053;DHT22;13826;51.186;4.450;2023-04-30T11:22:36;28.00;1.00
26053;DHT22;13826;51.186;4.450;2023-04-30T11:27:30;27.00;1.00
26053;DHT22;13826;51.186;4.450;2023-04-30T11:29:57;26.90;1.00
26053;DHT22;13826;51.186;4.450;2023-04-30T11:32:23;26.80;1.00
26053;DHT22;13826;51.186;4.450;2023-04-30T11:34:49;27.50;1.00
26053;DHT22;13826;51.186;4.450;2023-04-30T11:37:18;27.00;1.00
26053;DHT22;13826;51.186;4.450;2023-04-30T11:39:43;27.40;1.00
26053;DHT22;13826;51.186;4.450;2023-04-30T11:42:14;28.30;1.00
26053;DHT22;13826;51.186;4.450;2023-04-30T11:44:40;28.70;1.00
26053;DHT22;13826;51.186;4.450;2023-04-30T11:47:05;28.70;1.00
26053;DHT22;13826;51.186;4.450;2023-04-30T11:49:31;27.60;1.00
26053;DHT22;13826;51.186;4.450;2023-04-30T11:51:56;26.80;1.00
26053;DHT22;13826;51.186;4.450;2023-04-30T11:54:22;25.50;1.00
26053;DHT22;13826;51.186;4.450;2023-04-30T11:56:48;24.80;1.00
26053;DHT22;13826;51.186;4.450;2023-04-30T11:59:14;25.20;1.00
26053;DHT22;13826;51.186;4.450;2023-04-30T12:01:40;25.20;1.00
26053;DHT22;13826;51.186;4.450;2023-04-30T12:04:06;25.70;1.00
26053;DHT22;13826;51.186;4.450;2023-04-30T12:06:31;24.60;1.00
26053;DHT22;13826;51.186;4.450;2023-04-30T12:09:00;23.70;1.00
26053;DHT22;13826;51.186;4.450;2023-04-30T12:11:29;23.50;1.00
26053;DHT22;13826;51.186;4.450;2023-04-30T12:13:59;23.30;1.00
26053;DHT22;13826;51.186;4.450;2023-04-30T12:16:28;23.20;1.00
26053;DHT22;13826;51.186;4.450;2023-04-30T12:19:02;22.90;1.00
26053;DHT22;13826;51.186;4.450;2023-04-30T12:21:28;22.70;1.00
26053;DHT22;13826;51.186;4.450;2023-04-30T12:23:53;22.50;1.00
26053;DHT22;13826;51.186;4.450;2023-04-30T12:26:19;22.40;1.00
26053;DHT22;13826;51.186;4.450;2023-04-30T12:28:48;22.50;1.00
26053;DHT22;13826;51.186;4.450;2023-04-30T12:31:16;22.80;1.00
26053;DHT22;13826;51.186;4.450;2023-04-30T12:33:42;22.80;1.00
26053;DHT22;13826;51.186;4.450;2023-04-30T12:36:10;23.10;1.00
26053;DHT22;13826;51.186;4.450;2023-04-30T12:38:38;23.10;1.00
26053;DHT22;13826;51.186;4.450;2023-04-30T12:41:06;23.00;1.00
26053;DHT22;13826;51.186;4.450;2023-04-30T12:43:36;22.40;1.00
26053;DHT22;13826;51.186;4.450;2023-04-30T12:46:01;22.40;1.00
26053;DHT22;13826;51.186;4.450;2023-04-30T12:48:27;22.80;1.00
26053;DHT22;13826;51.186;4.450;2023-04-30T12:50:53;23.10;1.00
26053;DHT22;13826;51.186;4.450;2023-04-30T12:53:19;22.90;1.00
26053;DHT22;13826;51.186;4.450;2023-04-30T12:58:29;22.90;1.00
26053;DHT22;13826;51.186;4.450;2023-04-30T13:00:55;22.90;1.00
26053;DHT22;13826;51.186;4.450;2023-04-30T13:03:22;23.00;1.00
26053;DHT22;13826;51.186;4.450;2023-04-30T13:05:49;22.30;1.00
26053;DHT22;13826;51.186;4.450;2023-04-30T13:08:15;22.60;1.00
26053;DHT22;13826;51.186;4.450;2023-04-30T13:10:41;22.80;1.00
26053;DHT22;13826;51.186;4.450;2023-04-30T13:13:06;22.90;1.00
26053;DHT22;13826;51.186;4.450;2023-04-30T13:15:32;22.30;1.00
26053;DHT22;13826;51.186;4.450;2023-04-30T13:17:58;22.70;1.00
26053;DHT22;13826;51.186;4.450;2023-04-30T13:20:23;22.50;1.00
26053;DHT22;13826;51.186;4.450;2023-04-30T13:22:49;22.60;1.00
26053;DHT22;13826;51.186;4.450;2023-04-30T13:25:15;22.70;1.00
26053;DHT22;13826;51.186;4.450;2023-04-30T13:27:42;22.50;1.00
26053;DHT22;13826;51.186;4.450;2023-04-30T13:30:08;22.20;1.00
26053;DHT22;13826;51.186;4.450;2023-04-30T13:32:34;22.60;1.00
26053;DHT22;13826;51.186;4.450;2023-04-30T13:34:59;22.50;1.00
26053;DHT22;13826;51.186;4.450;2023-04-30T13:37:25;22.20;1.00
26053;DHT22;13826;51.186;4.450;2023-04-30T13:39:51;22.20;1.00
26053;DHT22;13826;51.186;4.450;2023-04-30T13:42:16;21.50;1.00
26053;DHT22;13826;51.186;4.450;2023-04-30T13:44:42;21.70;1.00
26053;DHT22;13826;51.186;4.450;2023-04-30T13:47:09;21.90;1.00
26053;DHT22;13826;51.186;4.450;2023-04-30T13:49:35;21.90;1.00
26053;DHT22;13826;51.186;4.450;2023-04-30T13:52:02;21.60;1.00
26053;DHT22;13826;51.186;4.450;2023-04-30T13:54:28;21.80;1.00
26053;DHT22;13826;51.186;4.450;2023-04-30T13:56:53;22.10;1.00
26053;DHT22;13826;51.186;4.450;2023-04-30T13:59:19;22.50;1.00
26053;DHT22;13826;51.186;4.450;2023-04-30T14:01:45;22.50;1.00
26053;DHT22;13826;51.186;4.450;2023-04-30T14:04:10;22.60;1.00
26053;DHT22;13826;51.186;4.450;2023-04-30T14:06:36;21.90;1.00
26053;DHT22;13826;51.186;4.450;2023-04-30T14:09:02;21.90;1.00
26053;DHT22;13826;51.186;4.450;2023-04-30T14:11:28;22.20;1.00
26053;DHT22;13826;51.186;4.450;2023-04-30T14:13:54;21.60;1.00
26053;DHT22;13826;51.186;4.450;2023-04-30T14:16:19;21.30;1.00
26053;DHT22;13826;51.186;4.450;2023-04-30T14:18:45;21.30;1.00
26053;DHT22;13826;51.186;4.450;2023-04-30T14:21:11;21.30;1.00
26053;DHT22;13826;51.186;4.450;2023-04-30T14:23:36;21.40;1.00
26053;DHT22;13826;51.186;4.450;2023-04-30T14:26:03;21.30;1.00
26053;DHT22;13826;51.186;4.450;2023-04-30T14:28:28;21.70;1.00
26053;DHT22;13826;51.186;4.450;2023-04-30T14:30:54;21.80;1.00
26053;DHT22;13826;51.186;4.450;2023-04-30T14:33:20;21.90;1.00
26053;DHT22;13826;51.186;4.450;2023-04-30T14:35:45;22.10;1.00
26053;DHT22;13826;51.186;4.450;2023-04-30T14:38:12;21.50;1.00
26053;DHT22;13826;51.186;4.450;2023-04-30T14:40:37;21.30;1.00
26053;DHT22;13826;51.186;4.450;2023-04-30T14:43:03;21.30;1.00
26053;DHT22;13826;51.186;4.450;2023-04-30T14:45:29;21.20;1.00
26053;DHT22;13826;51.186;4.450;2023-04-30T14:47:56;21.50;1.00
26053;DHT22;13826;51.186;4.450;2023-04-30T14:50:21;21.80;1.00
26053;DHT22;13826;51.186;4.450;2023-04-30T14:52:48;22.00;1.00
26053;DHT22;13826;51.186;4.450;2023-04-30T14:55:14;22.10;1.00
26053;DHT22;13826;51.186;4.450;2023-04-30T14:57:39;21.70;1.00
26053;DHT22;13826;51.186;4.450;2023-04-30T15:00:05;21.50;1.00
26053;DHT22;13826;51.186;4.450;2023-04-30T15:02:31;21.30;1.00
26053;DHT22;13826;51.186;4.450;2023-04-30T15:04:56;21.40;1.00
26053;DHT22;13826;51.186;4.450;2023-04-30T15:07:22;21.40;1.00
26053;DHT22;13826;51.186;4.450;2023-04-30T15:09:47;21.20;1.00
26053;DHT22;13826;51.186;4.450;2023-04-30T15:12:13;21.00;1.00
26053;DHT22;13826;51.186;4.450;2023-04-30T15:14:38;21.00;1.00
26053;DHT22;13826;51.186;4.450;2023-04-30T15:17:05;20.80;1.00
26053;DHT22;13826;51.186;4.450;2023-04-30T15:19:31;20.60;1.00
26053;DHT22;13826;51.186;4.450;2023-04-30T15:21:56;20.50;1.00
26053;DHT22;13826;51.186;4.450;2023-04-30T15:24:22;20.50;1.00
26053;DHT22;13826;51.186;4.450;2023-04-30T15:26:48;20.70;1.00
26053;DHT22;13826;51.186;4.450;2023-04-30T15:29:15;21.10;1.00
26053;DHT22;13826;51.186;4.450;2023-04-30T15:31:41;21.50;1.00
26053;DHT22;13826;51.186;4.450;2023-04-30T15:34:06;21.80;1.00
26053;DHT22;13826;51.186;4.450;2023-04-30T15:36:32;21.50;1.00
26053;DHT22;13826;51.186;4.450;2023-04-30T15:38:58;21.60;1.00
26053;DHT22;13826;51.186;4.450;2023-04-30T15:41:23;21.40;1.00
26053;DHT22;13826;51.186;4.450;2023-04-30T15:43:51;21.00;1.00
26053;DHT22;13826;51.186;4.450;2023-04-30T15:46:17;20.70;1.00
26053;DHT22;13826;51.186;4.450;2023-04-30T15:48:44;20.80;1.00
26053;DHT22;13826;51.186;4.450;2023-04-30T15:51:10;20.90;1.00
26053;DHT22;13826;51.186;4.450;2023-04-30T15:53:35;21.20;1.00
26053;DHT22;13826;51.186;4.450;2023-04-30T15:56:01;21.30;1.00
26053;DHT22;13826;51.186;4.450;2023-04-30T15:58:28;21.20;1.00
26053;DHT22;13826;51.186;4.450;2023-04-30T16:00:54;20.90;1.00
26053;DHT22;13826;51.186;4.450;2023-04-30T16:03:20;21.00;1.00
26053;DHT22;13826;51.186;4.450;2023-04-30T16:05:46;21.10;1.00